Time;durP1;ratioP1;P1;durP2;ratioP2;P2;SDS_P1;SDS_P2;PMS_P1;PMS_P2;Temp;Humidity;BMP_temperature;BMP_pressure;BME280_temperature;BME280_humidity;BME280_pressure;Samples;Min_cycle;Max_cycle;Signal;HPM_P1;HPM_P2
2023/01/19 06:34:43;;;;;;;;;;;;;;;2.76;57.19;96111.03;4204016;28;10197;-67
2023/01/19 06:36:46;;;;;;;;;;;;;;;2.97;56.96;96117.59;4190931;28;5708;-67
2023/01/19 06:38:49;;;;;;;;;;;;;;;3.11;56.67;96122.97;4183900;28;6467;-67
2023/01/19 06:40:53;;;;;;;;;;;;;;;3.22;56.32;96114.81;4188184;28;5753;-66
2023/01/19 06:42:56;;;;;;;;;;;;;;;3.32;56.25;96109.41;4194823;28;5814;-67
2023/01/19 06:45:00;;;;;;;;;;;;;;;3.40;56.06;96119.88;4197577;28;5818;-67
2023/01/19 06:47:02;;;;;;;;;;;;;;;3.46;55.97;96124.44;4191324;28;5720;-67
2023/01/19 06:49:17;;;;;;;;;;;;;;;3.50;55.94;96120.50;4190458;28;5833;-66
2023/01/19 06:51:22;;;;;;;;;;;;;;;3.55;55.77;96121.81;4187571;28;5836;-67
2023/01/19 06:53:26;;;;;;;;;;;;;;;3.57;55.75;96128.50;4197505;28;5642;-67
2023/01/19 06:55:29;;;;;;;;;;;;;;;3.58;55.49;96134.53;4199002;28;5728;-68
2023/01/19 06:57:32;;;;;;;;;;;;;;;3.59;55.72;96126.53;4182188;28;5101;-68
2023/01/19 06:59:35;;;;;;;;;;;;;;;3.60;55.48;96127.34;4181571;28;5832;-68
2023/01/19 07:01:37;;;;;;;;;;;;;;;3.60;55.55;96129.97;4181923;28;5741;-66
2023/01/19 07:03:40;;;;;;;;;;;;;;;3.61;55.24;96135.00;4197848;28;5744;-67
2023/01/19 07:05:43;;;;;;;;;;;;;;;3.61;55.21;96137.63;4196582;28;5720;-67
2023/01/19 07:07:51;;;;;;;;;;;;;;;3.64;55.15;96134.69;4182963;28;5892;-66
2023/01/19 07:09:54;;;;;;;;;;;;;;;3.66;55.21;96137.16;4197553;28;5937;-67
2023/01/19 07:11:57;;;;;;;;;;;;;;;3.66;54.98;96137.16;4195064;28;5849;-67
2023/01/19 07:14:00;;;;;;;;;;;;;;;3.65;54.95;96136.34;4193123;28;5732;-67
2023/01/19 07:16:04;;;;;;;;;;;;;;;3.68;55.03;96145.63;4189553;28;5712;-67
2023/01/19 07:18:09;;;;;;;;;;;;;;;3.65;54.87;96132.91;4189413;28;5792;-67
2023/01/19 07:20:14;;;;;;;;;;;;;;;3.64;54.91;96146.97;4197490;28;5712;-68
2023/01/19 07:22:17;;;;;;;;;;;;;;;3.64;54.81;96150.38;4183387;28;6028;-67
2023/01/19 07:24:21;;;;;;;;;;;;;;;3.64;54.80;96149.56;4181578;28;5866;-67
2023/01/19 07:26:24;;;;;;;;;;;;;;;3.64;54.70;96157.41;4181320;28;5745;-67
2023/01/19 07:28:27;;;;;;;;;;;;;;;3.65;54.60;96159.03;4189198;28;5782;-67
2023/01/19 07:30:33;;;;;;;;;;;;;;;3.67;54.75;96155.28;4189398;28;5856;-66
2023/01/19 07:32:35;;;;;;;;;;;;;;;3.65;54.47;96157.25;4178375;28;5696;-66
2023/01/19 07:34:38;;;;;;;;;;;;;;;3.65;54.68;96162.47;4194301;28;6633;-66
2023/01/19 07:36:41;;;;;;;;;;;;;;;3.65;54.52;96153.81;4201794;28;5739;-66
2023/01/19 07:38:46;;;;;;;;;;;;;;;3.66;54.56;96168.50;4188256;28;5765;-67
2023/01/19 07:40:50;;;;;;;;;;;;;;;3.65;54.37;96164.28;4194510;28;5757;-67
2023/01/19 07:42:53;;;;;;;;;;;;;;;3.54;54.32;96159.38;4191777;28;6568;-66
2023/01/19 07:44:56;;;;;;;;;;;;;;;3.56;54.41;96158.22;4189362;28;5751;-67
2023/01/19 07:46:59;;;;;;;;;;;;;;;3.59;54.26;96160.50;4191260;28;5741;-67
2023/01/19 07:49:01;;;;;;;;;;;;;;;3.62;54.24;96160.16;4186333;28;6211;-67
2023/01/19 07:51:07;;;;;;;;;;;;;;;3.65;54.21;96161.66;4186060;28;5782;-66
2023/01/19 07:53:14;;;;;;;;;;;;;;;3.69;53.98;96168.19;4191899;28;5739;-66
2023/01/19 07:55:17;;;;;;;;;;;;;;;3.71;54.03;96167.03;4196717;28;5757;-67
2023/01/19 07:57:21;;;;;;;;;;;;;;;3.73;54.03;96172.09;4194407;28;6521;-66
2023/01/19 07:59:24;;;;;;;;;;;;;;;3.75;53.92;96167.53;4193119;28;5728;-66
2023/01/19 08:01:28;;;;;;;;;;;;;;;3.77;53.84;96165.56;4195188;28;5812;-67
2023/01/19 08:03:32;;;;;;;;;;;;;;;3.76;53.86;96169.16;4194293;28;5753;-67
2023/01/19 08:05:35;;;;;;;;;;;;;;;3.77;53.82;96170.78;4194563;28;5738;-67
2023/01/19 08:07:38;;;;;;;;;;;;;;;3.78;53.85;96168.00;4193389;28;5784;-67
2023/01/19 08:09:41;;;;;;;;;;;;;;;3.80;53.71;96178.28;4194143;28;5739;-67
2023/01/19 08:11:44;;;;;;;;;;;;;;;3.84;53.70;96178.75;4195555;28;5743;-67
2023/01/19 08:13:48;;;;;;;;;;;;;;;3.82;53.78;96181.56;4203044;28;5719;-67
2023/01/19 08:15:52;;;;;;;;;;;;;;;3.85;53.58;96189.09;4202684;28;5747;-67
2023/01/19 08:17:56;;;;;;;;;;;;;;;3.85;53.56;96193.47;4202717;28;5739;-67
2023/01/19 08:19:59;;;;;;;;;;;;;;;3.83;53.61;96183.19;4198719;28;5776;-67
2023/01/19 08:22:02;;;;;;;;;;;;;;;3.85;53.48;96196.94;4193898;28;5776;-67
2023/01/19 08:24:05;;;;;;;;;;;;;;;3.86;53.44;96188.09;4198356;28;5855;-67
2023/01/19 08:26:19;;;;;;;;;;;;;;;3.88;53.34;96193.16;4194254;28;6558;-67
2023/01/19 08:28:22;;;;;;;;;;;;;;;3.91;53.30;96193.63;4193415;28;5747;-67
2023/01/19 08:30:29;;;;;;;;;;;;;;;3.93;53.03;96201.31;4186702;28;5781;-67
2023/01/19 08:32:31;;;;;;;;;;;;;;;3.91;53.21;96196.25;4193730;28;5728;-69
2023/01/19 08:34:34;;;;;;;;;;;;;;;3.93;53.10;96202.13;4193578;28;5780;-67
2023/01/19 08:36:37;;;;;;;;;;;;;;;3.95;53.12;96200.16;4193549;28;5888;-67
2023/01/19 08:38:43;;;;;;;;;;;;;;;3.99;53.02;96211.13;4202336;28;5869;-68
2023/01/19 08:40:46;;;;;;;;;;;;;;;3.99;53.08;96206.72;4193632;28;5936;-67
2023/01/19 08:42:49;;;;;;;;;;;;;;;4.00;53.10;96208.34;4193001;28;5738;-67
2023/01/19 08:44:52;;;;;;;;;;;;;;;4.01;53.06;96204.72;4199210;28;5731;-68
2023/01/19 08:47:01;;;;;;;;;;;;;;;4.06;52.99;96206.84;4189179;28;5810;-68
2023/01/19 08:49:04;;;;;;;;;;;;;;;4.07;52.80;96206.66;4202186;28;5751;-68
2023/01/19 08:51:07;;;;;;;;;;;;;;;4.12;52.82;96210.59;4188419;28;5896;-68
2023/01/19 08:53:10;;;;;;;;;;;;;;;4.13;52.68;96207.00;4198886;28;5739;-67
2023/01/19 08:55:13;;;;;;;;;;;;;;;4.14;52.75;96211.25;4193361;28;6444;-67
2023/01/19 08:57:15;;;;;;;;;;;;;;;4.14;52.88;96214.69;4193804;28;5877;-68
2023/01/19 08:59:18;;;;;;;;;;;;;;;4.14;52.67;96216.47;4195564;28;5777;-67
2023/01/19 09:01:21;;;;;;;;;;;;;;;4.13;52.86;96222.69;4193339;28;5742;-68
2023/01/19 09:03:25;;;;;;;;;;;;;;;4.15;52.80;96225.97;4192187;28;5742;-68
2023/01/19 09:05:30;;;;;;;;;;;;;;;4.17;52.84;96221.38;4193301;28;5752;-67
2023/01/19 09:07:33;;;;;;;;;;;;;;;4.20;52.63;96224.50;4184856;28;6459;-67
2023/01/19 09:09:42;;;;;;;;;;;;;;;4.24;52.60;96220.53;4184948;28;5753;-67
2023/01/19 09:11:45;;;;;;;;;;;;;;;4.25;52.69;96229.22;4194843;28;5370;-67
2023/01/19 09:13:50;;;;;;;;;;;;;;;4.25;52.70;96226.59;4192973;28;7331;-68
2023/01/19 09:15:52;;;;;;;;;;;;;;;4.26;52.57;96233.44;4192477;28;5981;-67
2023/01/19 09:17:57;;;;;;;;;;;;;;;4.26;52.57;96230.84;4189880;28;5852;-66
2023/01/19 09:20:03;;;;;;;;;;;;;;;4.25;52.57;96235.25;4196661;28;5735;-66
2023/01/19 09:22:06;;;;;;;;;;;;;;;4.24;52.69;96232.81;4196887;28;5756;-67
2023/01/19 09:24:09;;;;;;;;;;;;;;;4.28;52.39;96234.09;4190134;28;5731;-68
2023/01/19 09:26:11;;;;;;;;;;;;;;;4.29;52.52;96233.94;4187867;28;5765;-67
2023/01/19 09:28:16;;;;;;;;;;;;;;;4.32;52.45;96232.81;4192833;28;5786;-68
2023/01/19 09:30:20;;;;;;;;;;;;;;;4.32;52.41;96230.19;4199460;28;6008;-67
2023/01/19 09:32:23;;;;;;;;;;;;;;;4.29;52.29;96233.09;4192780;28;5837;-68
2023/01/19 09:34:26;;;;;;;;;;;;;;;4.27;52.30;96233.28;4185373;28;5758;-68
2023/01/19 09:36:31;;;;;;;;;;;;;;;4.29;52.49;96236.53;4184443;28;5860;-68
2023/01/19 09:38:34;;;;;;;;;;;;;;;4.32;52.50;96231.00;4192731;28;5735;-67
2023/01/19 09:40:42;;;;;;;;;;;;;;;4.37;52.06;96231.28;4184862;28;5753;-67
2023/01/19 09:42:53;;;;;;;;;;;;;;;4.37;52.09;96230.47;4192848;28;5747;-67
2023/01/19 09:44:56;;;;;;;;;;;;;;;4.38;52.30;96237.34;4187571;28;5739;-67
2023/01/19 09:46:58;;;;;;;;;;;;;;;4.41;52.09;96239.63;4201179;28;5736;-67
2023/01/19 09:49:12;;;;;;;;;;;;;;;4.42;52.05;96245.66;4192660;28;5727;-67
2023/01/19 09:51:18;;;;;;;;;;;;;;;4.42;52.10;96243.91;4194515;28;5928;-68
2023/01/19 09:53:33;;;;;;;;;;;;;;;4.43;52.11;96255.19;4190834;28;5811;-67
2023/01/19 09:55:39;;;;;;;;;;;;;;;4.47;51.96;96253.84;4200196;28;5861;-67
2023/01/19 09:57:43;;;;;;;;;;;;;;;4.48;51.93;96243.22;4194000;28;5891;-67
2023/01/19 09:59:50;;;;;;;;;;;;;;;4.51;52.00;96249.91;4190899;28;5757;-66
2023/01/19 10:02:06;;;;;;;;;;;;;;;4.52;51.96;96243.69;4192959;28;6854;-67
2023/01/19 10:04:40;;;;;;;;;;;;;;;4.51;51.94;96235.00;4197454;28;5727;-67
2023/01/19 10:06:43;;;;;;;;;;;;;;;4.52;51.75;96243.69;4116918;28;5990;-67
2023/01/19 10:08:55;;;;;;;;;;;;;;;4.50;51.75;96246.47;4117082;28;5867;-67
2023/01/19 10:10:58;;;;;;;;;;;;;;;4.53;51.78;96248.78;4117368;28;5985;-67
2023/01/19 10:13:30;;;;;;;;;;;;;;;4.55;51.70;96246.78;4109031;28;6018;-66
2023/01/19 10:15:43;;;;;;;;;;;;;;;4.56;51.80;96245.81;4109231;28;6085;-67
2023/01/19 10:18:01;;;;;;;;;;;;;;;4.56;51.76;96247.59;4101118;28;6006;-66
2023/01/19 10:20:13;;;;;;;;;;;;;;;4.55;51.67;96238.94;4113040;28;5946;-67
2023/01/19 10:22:21;;;;;;;;;;;;;;;4.57;51.78;96241.38;4108685;28;5890;-67
2023/01/19 10:24:28;;;;;;;;;;;;;;;4.60;51.57;96236.63;4116630;28;6065;-67
2023/01/19 10:26:33;;;;;;;;;;;;;;;4.67;51.55;96240.19;4108533;28;5986;-68
2023/01/19 10:28:38;;;;;;;;;;;;;;;4.68;51.63;96241.84;4108906;28;5972;-68
2023/01/19 10:30:43;;;;;;;;;;;;;;;4.66;51.54;96238.56;4108902;28;6091;-68
2023/01/19 10:32:49;;;;;;;;;;;;;;;4.65;51.58;96244.78;4108586;28;5889;-67
2023/01/19 10:34:54;;;;;;;;;;;;;;;4.68;51.45;96239.22;4114351;28;5973;-67
2023/01/19 10:37:02;;;;;;;;;;;;;;;4.72;51.47;96234.44;4112013;28;6248;-67
2023/01/19 10:39:06;;;;;;;;;;;;;;;4.75;51.41;96239.34;4112582;28;5900;-67
2023/01/19 10:41:14;;;;;;;;;;;;;;;4.79;51.40;96237.22;4141814;28;5761;-67
2023/01/19 10:43:36;;;;;;;;;;;;;;;4.81;51.38;96237.84;4198319;28;5732;-68
2023/01/19 10:45:42;;;;;;;;;;;;;;;4.83;51.45;96239.31;4192450;28;5773;-68
2023/01/19 10:47:46;;;;;;;;;;;;;;;4.81;51.25;96233.44;4198726;28;5766;-67
2023/01/19 10:49:49;;;;;;;;;;;;;;;4.82;51.57;96229.81;4191953;28;5853;-67
2023/01/19 10:51:53;;;;;;;;;;;;;;;4.84;51.52;96227.03;4191785;28;5728;-67
2023/01/19 10:53:59;;;;;;;;;;;;;;;4.87;51.28;96232.75;4186964;28;5731;-67
2023/01/19 10:56:16;;;;;;;;;;;;;;;4.87;51.54;96229.28;4196665;28;6454;-67
2023/01/19 10:58:28;;;;;;;;;;;;;;;4.81;51.37;96232.63;4198221;28;5727;-67
2023/01/19 11:00:35;;;;;;;;;;;;;;;4.79;51.72;96229.34;4191948;28;5731;-67
2023/01/19 11:02:50;;;;;;;;;;;;;;;4.77;51.57;96223.47;4184036;28;5780;-67
2023/01/19 11:04:55;;;;;;;;;;;;;;;4.78;51.48;96225.09;4194765;28;5957;-67
2023/01/19 11:07:14;;;;;;;;;;;;;;;4.77;51.63;96210.38;4189752;28;5980;-68
2023/01/19 11:09:18;;;;;;;;;;;;;;;4.78;51.49;96222.50;4187109;28;5761;-68
2023/01/19 11:11:24;;;;;;;;;;;;;;;4.80;51.62;96215.28;4187264;28;6478;-68
2023/01/19 11:13:27;;;;;;;;;;;;;;;4.79;51.57;96213.63;4186775;28;5781;-68
2023/01/19 11:15:33;;;;;;;;;;;;;;;4.80;51.70;96210.84;4186894;28;5836;-68
2023/01/19 11:17:36;;;;;;;;;;;;;;;4.85;51.43;96216.38;4195765;28;6440;-67
2023/01/19 11:19:39;;;;;;;;;;;;;;;4.87;51.46;96205.72;4203195;28;5830;-67
2023/01/19 11:21:42;;;;;;;;;;;;;;;4.89;51.30;96204.59;4201767;28;5739;-67
2023/01/19 11:23:49;;;;;;;;;;;;;;;4.92;51.25;96192.94;4196620;28;5838;-67
2023/01/19 11:25:54;;;;;;;;;;;;;;;4.95;51.38;96197.81;4194929;28;5954;-66
2023/01/19 11:27:59;;;;;;;;;;;;;;;4.95;51.31;96189.97;4199756;28;5871;-66
2023/01/19 11:30:09;;;;;;;;;;;;;;;4.97;51.26;96185.38;4194858;28;5789;-67
2023/01/19 11:32:21;;;;;;;;;;;;;;;5.02;51.48;96187.50;4194836;28;5786;-68
2023/01/19 11:34:30;;;;;;;;;;;;;;;5.09;51.35;96183.16;4194433;28;5840;-67
2023/01/19 11:36:35;;;;;;;;;;;;;;;5.19;51.23;96179.34;4194603;28;5910;-67
2023/01/19 11:38:43;;;;;;;;;;;;;;;5.25;51.21;96177.84;4186634;28;6521;-67
2023/01/19 11:40:50;;;;;;;;;;;;;;;5.30;51.40;96182.53;4168776;28;5662;-68
2023/01/19 11:42:53;;;;;;;;;;;;;;;5.25;51.38;96177.84;4194595;28;5994;-68
2023/01/19 11:45:04;;;;;;;;;;;;;;;5.21;51.45;96176.56;4194280;28;5765;-68
2023/01/19 11:47:12;;;;;;;;;;;;;;;5.17;51.34;96170.84;4194812;28;5801;-67
2023/01/19 11:49:22;;;;;;;;;;;;;;;5.15;51.43;96167.56;4200460;28;5798;-68
2023/01/19 11:51:29;;;;;;;;;;;;;;;5.15;51.60;96172.00;4187451;28;5753;-67
2023/01/19 11:53:34;;;;;;;;;;;;;;;5.17;51.38;96170.84;4194603;28;5842;-68
2023/01/19 11:55:41;;;;;;;;;;;;;;;5.20;51.36;96167.84;4202753;28;5766;-68
2023/01/19 11:57:47;;;;;;;;;;;;;;;5.26;51.42;96156.69;4194555;28;5890;-68
2023/01/19 11:59:49;;;;;;;;;;;;;;;5.30;51.26;96164.19;4196743;28;6547;-68
2023/01/19 12:01:58;;;;;;;;;;;;;;;5.29;51.29;96162.56;4200175;28;7098;-68
2023/01/19 12:04:06;;;;;;;;;;;;;;;5.28;51.27;96155.69;4190239;28;5728;-68
2023/01/19 12:06:12;;;;;;;;;;;;;;;5.29;51.29;96154.69;4202498;28;5744;-67
2023/01/19 12:08:20;;;;;;;;;;;;;;;5.31;51.21;96152.72;4194498;28;5761;-68
2023/01/19 12:10:27;;;;;;;;;;;;;;;5.32;51.24;96151.72;4194422;28;5838;-68
2023/01/19 12:12:32;;;;;;;;;;;;;;;5.29;51.28;96152.09;4186684;28;5761;-68
2023/01/19 12:14:41;;;;;;;;;;;;;;;5.22;51.18;96147.56;4186060;28;5857;-67
2023/01/19 12:16:44;;;;;;;;;;;;;;;5.20;51.27;96160.00;4195570;28;5727;-68
2023/01/19 12:18:54;;;;;;;;;;;;;;;5.18;51.15;96156.75;4192257;28;5814;-68
2023/01/19 12:20:57;;;;;;;;;;;;;;;5.17;51.38;96154.31;4194018;28;5928;-67
2023/01/19 12:23:11;;;;;;;;;;;;;;;5.12;51.08;96151.41;4185409;28;5753;-68
2023/01/19 12:25:22;;;;;;;;;;;;;;;5.15;51.17;96153.66;4186205;28;5773;-68
2023/01/19 12:27:37;;;;;;;;;;;;;;;5.17;51.17;96139.38;4194027;28;5824;-68
2023/01/19 12:29:41;;;;;;;;;;;;;;;5.18;51.14;96143.63;4185982;28;5780;-68
2023/01/19 12:31:44;;;;;;;;;;;;;;;5.17;50.90;96142.00;4195466;28;5727;-67
2023/01/19 12:33:55;;;;;;;;;;;;;;;5.16;50.86;96150.88;4199138;28;6681;-68
2023/01/19 12:35:59;;;;;;;;;;;;;;;5.16;50.82;96150.88;4197195;28;5835;-67
2023/01/19 12:38:42;;;;;;;;;;;;;;;5.17;51.14;96143.81;4193611;28;5862;-68
2023/01/19 12:40:45;;;;;;;;;;;;;;;5.16;50.74;96150.06;4195559;28;5735;-68
2023/01/19 12:42:55;;;;;;;;;;;;;;;5.14;50.89;96149.41;4200268;28;5928;-66
2023/01/19 12:45:06;;;;;;;;;;;;;;;5.12;50.94;96144.34;4185566;28;6449;-67
2023/01/19 12:47:23;;;;;;;;;;;;;;;5.12;50.77;96144.34;4193576;28;6451;-67
2023/01/19 12:49:31;;;;;;;;;;;;;;;5.11;50.60;96140.09;4193477;28;5848;-67
2023/01/19 12:51:34;;;;;;;;;;;;;;;5.08;50.94;96137.00;4193669;28;5826;-67
2023/01/19 12:53:37;;;;;;;;;;;;;;;5.09;50.77;96144.69;4201466;28;5743;-66
2023/01/19 12:55:45;;;;;;;;;;;;;;;5.10;50.77;96141.09;4185967;28;5773;-67
2023/01/19 12:57:56;;;;;;;;;;;;;;;5.12;50.73;96133.06;4193518;28;5761;-68
2023/01/19 13:00:01;;;;;;;;;;;;;;;5.15;50.62;96138.75;4193583;28;5743;-67
2023/01/19 13:02:32;;;;;;;;;;;;;;;5.15;50.75;96127.47;4193616;28;5747;-67
2023/01/19 13:04:36;;;;;;;;;;;;;;;5.15;50.75;96125.66;4193628;28;5744;-67
2023/01/19 13:07:09;;;;;;;;;;;;;;;5.14;50.67;96128.44;4201887;28;5798;-68
2023/01/19 13:09:30;;;;;;;;;;;;;;;5.14;50.56;96129.25;4134146;28;5853;-67
2023/01/19 13:11:33;;;;;;;;;;;;;;;5.13;50.50;96126.81;4126048;28;5852;-66
2023/01/19 13:13:37;;;;;;;;;;;;;;;5.13;50.59;96127.63;4126004;28;5847;-67
2023/01/19 13:15:40;;;;;;;;;;;;;;;5.12;50.63;96120.78;4125039;28;6019;-67
2023/01/19 13:17:49;;;;;;;;;;;;;;;5.12;50.54;96130.44;4125571;28;5896;-67
2023/01/19 13:20:00;;;;;;;;;;;;;;;5.10;50.55;96133.25;4125493;28;6009;-67
2023/01/19 13:22:36;;;;;;;;;;;;;;;5.06;50.41;96124.06;4129664;28;5936;-68
2023/01/19 13:24:54;;;;;;;;;;;;;;;5.08;50.43;96124.72;4133148;28;5856;-68
2023/01/19 13:27:02;;;;;;;;;;;;;;;5.06;50.44;96120.66;4129193;28;5878;-68
2023/01/19 13:29:08;;;;;;;;;;;;;;;5.06;50.33;96121.47;4125087;28;6030;-68
2023/01/19 13:31:13;;;;;;;;;;;;;;;5.08;50.39;96116.03;4133816;28;5864;-66
2023/01/19 13:33:21;;;;;;;;;;;;;;;5.11;50.18;96121.75;4125452;28;5102;-68
2023/01/19 13:35:25;;;;;;;;;;;;;;;5.14;50.17;96121.41;4126269;28;5891;-67
2023/01/19 13:37:33;;;;;;;;;;;;;;;5.14;50.25;96121.41;4132651;28;5845;-67
2023/01/19 13:39:40;;;;;;;;;;;;;;;5.15;50.32;96115.16;4133774;28;5872;-68
2023/01/19 13:41:44;;;;;;;;;;;;;;;5.14;50.35;96115.34;4124344;28;5905;-68
2023/01/19 13:43:49;;;;;;;;;;;;;;;5.14;50.28;96117.97;4119070;28;5941;-67
2023/01/19 13:45:55;;;;;;;;;;;;;;;5.14;50.18;96113.53;4180701;28;5742;-67
2023/01/19 13:48:00;;;;;;;;;;;;;;;5.14;50.15;96117.97;4189364;28;5777;-67
2023/01/19 13:50:05;;;;;;;;;;;;;;;5.15;50.25;96114.34;4184735;28;5840;-67
2023/01/19 13:52:13;;;;;;;;;;;;;;;5.15;50.00;96109.94;4192352;28;5765;-67
2023/01/19 13:54:16;;;;;;;;;;;;;;;5.18;49.90;96114.00;4190410;28;5728;-66
2023/01/19 13:56:22;;;;;;;;;;;;;;;5.13;49.83;96111.91;4194608;28;5776;-67
2023/01/19 13:58:26;;;;;;;;;;;;;;;5.18;49.91;96114.00;4191668;28;5743;-68
2023/01/19 14:00:30;;;;;;;;;;;;;;;5.18;49.78;96109.56;4193064;28;5921;-67
2023/01/19 14:02:33;;;;;;;;;;;;;;;5.18;49.79;96108.75;4192496;28;5110;-68
2023/01/19 14:04:36;;;;;;;;;;;;;;;5.19;49.85;96105.97;4184670;28;5887;-68
2023/01/19 14:06:44;;;;;;;;;;;;;;;5.19;49.82;96097.28;4184392;28;5761;-68
2023/01/19 14:09:05;;;;;;;;;;;;;;;5.20;49.91;96098.91;4184440;28;5816;-67
2023/01/19 14:11:13;;;;;;;;;;;;;;;5.20;49.88;96102.34;4197357;28;5759;-69
2023/01/19 14:13:18;;;;;;;;;;;;;;;5.20;49.75;96096.28;4201193;28;5727;-67
2023/01/19 14:15:21;;;;;;;;;;;;;;;5.18;49.77;96093.84;4200709;28;5727;-68
2023/01/19 14:17:26;;;;;;;;;;;;;;;5.20;49.74;96096.28;4200903;28;5743;-68
2023/01/19 14:19:29;;;;;;;;;;;;;;;5.21;49.99;96092.72;4192846;28;5791;-68
2023/01/19 14:21:40;;;;;;;;;;;;;;;5.21;49.95;96092.72;4200397;28;6015;-68
2023/01/19 14:23:46;;;;;;;;;;;;;;;5.19;49.87;96090.22;4193811;28;5747;-68
2023/01/19 14:25:51;;;;;;;;;;;;;;;5.20;49.77;96091.88;4200570;28;5736;-68
2023/01/19 14:28:27;;;;;;;;;;;;;;;5.22;49.76;96084.66;4200806;28;6014;-68
2023/01/19 14:30:34;;;;;;;;;;;;;;;5.25;49.59;96089.53;4192814;28;5773;-68
2023/01/19 14:32:46;;;;;;;;;;;;;;;5.22;49.75;96087.28;4192947;28;5818;-67
2023/01/19 14:34:51;;;;;;;;;;;;;;;5.22;49.79;96083.84;4190316;28;5853;-67
2023/01/19 14:36:54;;;;;;;;;;;;;;;5.22;49.79;96078.63;4195031;28;5834;-67
2023/01/19 14:38:59;;;;;;;;;;;;;;;5.24;49.70;96082.69;4200742;28;5981;-67
2023/01/19 14:41:04;;;;;;;;;;;;;;;5.25;49.76;96084.31;4188382;28;5742;-69
2023/01/19 14:43:13;;;;;;;;;;;;;;;5.22;49.55;96074.19;4187609;28;5859;-68
2023/01/19 14:45:18;;;;;;;;;;;;;;;5.17;49.62;96075.69;4187729;28;5148;-69
2023/01/19 14:47:31;;;;;;;;;;;;;;;5.19;49.57;96074.50;4195708;28;5860;-68
2023/01/19 14:49:35;;;;;;;;;;;;;;;5.21;49.61;96077.78;4195483;28;5065;-68
2023/01/19 14:51:38;;;;;;;;;;;;;;;5.20;49.53;96080.56;4178182;28;5947;-68
2023/01/19 14:53:47;;;;;;;;;;;;;;;5.19;49.77;96064.03;4195521;28;5751;-68
2023/01/19 14:55:54;;;;;;;;;;;;;;;5.20;49.63;96067.47;4187402;28;5765;-67
2023/01/19 14:57:58;;;;;;;;;;;;;;;5.23;49.52;96062.72;4198780;28;5852;-68
2023/01/19 15:00:06;;;;;;;;;;;;;;;5.23;49.55;96065.31;4199995;28;5773;-68
2023/01/19 15:02:09;;;;;;;;;;;;;;;5.26;49.43;96056.28;4191998;28;6425;-68
2023/01/19 15:04:12;;;;;;;;;;;;;;;5.26;49.38;96062.34;4195293;28;5866;-68
2023/01/19 15:06:18;;;;;;;;;;;;;;;5.26;49.46;96062.34;4195223;28;5073;-67
2023/01/19 15:08:30;;;;;;;;;;;;;;;5.29;49.65;96057.72;4188768;28;7739;-67
2023/01/19 15:10:35;;;;;;;;;;;;;;;5.30;49.26;96056.75;4195184;28;5824;-68
2023/01/19 15:12:38;;;;;;;;;;;;;;;5.29;49.31;96057.72;4195679;28;5962;-68
2023/01/19 15:14:42;;;;;;;;;;;;;;;5.31;49.32;96060.97;4193858;28;5825;-67
2023/01/19 15:16:45;;;;;;;;;;;;;;;5.30;49.24;96054.13;4199796;28;5686;-67
2023/01/19 15:18:48;;;;;;;;;;;;;;;5.29;49.41;96062.97;4200809;28;5693;-67
2023/01/19 15:20:51;;;;;;;;;;;;;;;5.29;49.26;96052.50;4201170;28;5740;-68
2023/01/19 15:22:53;;;;;;;;;;;;;;;5.26;49.17;96053.66;4189607;28;6167;-67
2023/01/19 15:24:58;;;;;;;;;;;;;;;5.24;49.38;96056.47;4200382;28;5728;-67
2023/01/19 15:27:01;;;;;;;;;;;;;;;5.24;49.24;96056.47;4195505;28;5096;-68
2023/01/19 15:29:16;;;;;;;;;;;;;;;5.23;49.36;96054.84;4202689;28;5755;-67
2023/01/19 15:31:22;;;;;;;;;;;;;;;5.23;49.10;96064.50;4202401;28;5782;-68
2023/01/19 15:33:28;;;;;;;;;;;;;;;5.19;49.09;96056.16;4198069;28;5724;-67
2023/01/19 15:35:33;;;;;;;;;;;;;;;5.20;49.25;96055.19;4202127;28;5886;-67
2023/01/19 15:37:36;;;;;;;;;;;;;;;5.20;49.08;96051.75;4201688;28;5854;-68
2023/01/19 15:39:39;;;;;;;;;;;;;;;5.17;49.16;96052.91;4202083;28;5890;-67
2023/01/19 15:41:45;;;;;;;;;;;;;;;5.19;49.08;96052.75;4184875;28;5642;-68
2023/01/19 15:43:51;;;;;;;;;;;;;;;5.20;49.17;96055.19;4201790;28;5856;-69
2023/01/19 15:46:00;;;;;;;;;;;;;;;5.18;48.92;96051.13;4200918;28;5839;-68
2023/01/19 15:48:05;;;;;;;;;;;;;;;5.17;48.90;96047.69;4191959;28;5752;-66
2023/01/19 15:50:10;;;;;;;;;;;;;;;5.17;49.06;96044.25;4202754;28;5873;-68
2023/01/19 15:52:13;;;;;;;;;;;;;;;5.16;49.05;96040.81;4196725;28;5922;-69
2023/01/19 15:54:19;;;;;;;;;;;;;;;5.16;48.86;96035.56;4194069;28;5772;-67
2023/01/19 15:56:23;;;;;;;;;;;;;;;5.15;48.97;96036.56;4192572;28;6415;-67
2023/01/19 15:58:26;;;;;;;;;;;;;;;5.15;48.92;96036.56;4196838;28;5694;-67
2023/01/19 16:00:30;;;;;;;;;;;;;;;5.15;48.89;96035.75;4189007;28;6044;-68
2023/01/19 16:02:33;;;;;;;;;;;;;;;5.13;48.88;96033.31;4193975;28;5796;-67
2023/01/19 16:04:37;;;;;;;;;;;;;;;5.11;48.76;96030.06;4197030;28;5818;-69
2023/01/19 16:06:40;;;;;;;;;;;;;;;5.10;48.87;96027.63;4194245;28;5719;-67
2023/01/19 16:08:43;;;;;;;;;;;;;;;5.09;48.81;96026.78;4195362;28;5864;-68
2023/01/19 16:10:47;;;;;;;;;;;;;;;5.08;48.95;96027.78;4195987;28;5882;-69
2023/01/19 16:12:50;;;;;;;;;;;;;;;5.06;48.91;96019.28;4182338;28;5635;-67
2023/01/19 16:14:54;;;;;;;;;;;;;;;5.04;48.84;96028.31;4193972;28;5747;-68
2023/01/19 16:16:58;;;;;;;;;;;;;;;5.03;48.84;96021.47;4197659;28;5933;-68
2023/01/19 16:19:01;;;;;;;;;;;;;;;5.01;48.81;96024.25;4196185;28;5838;-68
2023/01/19 16:21:06;;;;;;;;;;;;;;;5.01;48.84;96019.00;4192562;28;5868;-67
2023/01/19 16:23:09;;;;;;;;;;;;;;;4.99;48.79;96021.00;4196031;28;5862;-67
2023/01/19 16:25:17;;;;;;;;;;;;;;;4.96;48.86;96016.91;4190986;28;5971;-68
2023/01/19 16:27:20;;;;;;;;;;;;;;;4.96;48.88;96010.84;4200283;28;5806;-68
2023/01/19 16:29:23;;;;;;;;;;;;;;;4.94;48.73;96011.03;4202332;28;5734;-67
2023/01/19 16:31:25;;;;;;;;;;;;;;;4.91;48.81;96013.22;4198480;28;5941;-68
2023/01/19 16:33:28;;;;;;;;;;;;;;;4.89;48.81;96015.19;4198753;28;6061;-68
2023/01/19 16:35:31;;;;;;;;;;;;;;;4.86;48.77;96005.06;4197211;28;5954;-68
2023/01/19 16:37:35;;;;;;;;;;;;;;;4.81;48.84;96015.25;4189193;28;5760;-65
2023/01/19 16:39:38;;;;;;;;;;;;;;;4.70;48.88;96013.88;4186841;28;5825;-67
2023/01/19 16:41:42;;;;;;;;;;;;;;;4.58;48.86;96007.41;4197420;28;5899;-67
2023/01/19 16:43:50;;;;;;;;;;;;;;;4.47;49.04;96008.63;4195853;28;6184;-68
2023/01/19 16:45:57;;;;;;;;;;;;;;;4.39;49.07;96008.69;4191720;28;5094;-68
2023/01/19 16:48:00;;;;;;;;;;;;;;;4.44;49.07;96008.19;4196039;28;5911;-67
2023/01/19 16:50:04;;;;;;;;;;;;;;;4.35;48.91;96002.97;4194089;28;5918;-68
2023/01/19 16:52:07;;;;;;;;;;;;;;;4.30;49.22;96001.84;4194337;28;5890;-68
2023/01/19 16:54:13;;;;;;;;;;;;;;;4.37;49.11;96000.19;4197660;28;6512;-68
2023/01/19 16:56:16;;;;;;;;;;;;;;;4.44;49.15;96000.31;4194600;28;6734;-68
2023/01/19 16:58:18;;;;;;;;;;;;;;;4.47;49.01;95995.53;4196206;28;5846;-69
2023/01/19 17:00:21;;;;;;;;;;;;;;;4.49;49.01;95998.78;4199499;28;5842;-69
2023/01/19 17:02:24;;;;;;;;;;;;;;;4.45;49.08;96000.16;4195057;28;5901;-66
2023/01/19 17:04:28;;;;;;;;;;;;;;;4.42;48.94;95989.19;4197782;28;5787;-69
2023/01/19 17:06:31;;;;;;;;;;;;;;;4.45;49.00;95994.91;4198044;28;5744;-68
2023/01/19 17:08:35;;;;;;;;;;;;;;;4.46;49.12;95998.34;4193864;28;6464;-62
2023/01/19 17:10:40;;;;;;;;;;;;;;;4.45;48.99;96001.94;4199393;28;5984;-70
2023/01/19 17:12:43;;;;;;;;;;;;;;;4.46;49.02;95999.16;4196210;28;5727;-74
2023/01/19 17:14:47;;;;;;;;;;;;;;;4.44;49.20;95990.66;4180148;28;5923;-63
2023/01/19 17:16:50;;;;;;;;;;;;;;;4.43;49.14;95993.47;4191626;28;5839;-65
2023/01/19 17:18:53;;;;;;;;;;;;;;;4.43;49.19;95989.03;4198420;28;5878;-64
2023/01/19 17:21:01;;;;;;;;;;;;;;;4.39;49.05;95992.97;4203143;28;5794;-64
2023/01/19 17:23:03;;;;;;;;;;;;;;;4.34;49.03;95990.88;4202390;28;6053;-65
2023/01/19 17:25:07;;;;;;;;;;;;;;;4.37;49.17;95984.50;4204079;28;5858;-65
2023/01/19 17:27:12;;;;;;;;;;;;;;;4.40;49.26;95981.50;4206557;28;5709;-65
2023/01/19 17:29:16;;;;;;;;;;;;;;;4.44;49.24;95984.63;4204906;28;5729;-66
2023/01/19 17:31:21;;;;;;;;;;;;;;;4.45;49.19;95976.59;4203841;28;5142;-65
2023/01/19 17:33:24;;;;;;;;;;;;;;;4.47;49.28;95974.59;4203721;28;6522;-65
2023/01/19 17:35:27;;;;;;;;;;;;;;;4.50;49.28;95970.81;4206709;28;5738;-66
2023/01/19 17:37:30;;;;;;;;;;;;;;;4.52;49.19;95974.06;4191759;28;5706;-65
2023/01/19 17:39:33;;;;;;;;;;;;;;;4.54;49.12;95975.53;4206267;28;5730;-64
2023/01/19 17:41:37;;;;;;;;;;;;;;;4.56;49.08;95968.31;4202089;28;5738;-64
2023/01/19 17:43:42;;;;;;;;;;;;;;;4.57;49.08;95969.94;4201674;28;5744;-64
2023/01/19 17:45:45;;;;;;;;;;;;;;;4.57;49.11;95967.34;4195924;28;5952;-64
2023/01/19 17:47:49;;;;;;;;;;;;;;;4.61;49.24;95965.16;4194474;28;6576;-65